Time;durP1;ratioP1;P1;durP2;ratioP2;P2;SDS_P1;SDS_P2;PMS_P1;PMS_P2;Temp;Humidity;BMP_temperature;BMP_pressure;BME280_temperature;BME280_humidity;BME280_pressure;Samples;Min_cycle;Max_cycle;Signal;HPM_P1;HPM_P2
2022/11/14 00:00:49;;;;;;;23.40;6.43;;;;;;;;;;5019125;28;20022;-63
2022/11/14 00:03:16;;;;;;;28.55;6.20;;;;;;;;;;5013193;28;20052;-60
2022/11/14 00:05:44;;;;;;;24.35;5.60;;;;;;;;;;5013753;28;20029;-60
2022/11/14 00:08:16;;;;;;;26.73;6.10;;;;;;;;;;5032051;28;20038;-61
2022/11/14 00:10:42;;;;;;;29.52;6.15;;;;;;;;;;5014511;28;20034;-61
2022/11/14 00:13:09;;;;;;;27.90;6.18;;;;;;;;;;5031202;28;20025;-63
2022/11/14 00:15:36;;;;;;;29.63;6.30;;;;;;;;;;5032344;28;20108;-64
2022/11/14 00:18:03;;;;;;;29.58;6.05;;;;;;;;;;5032684;28;20116;-63
2022/11/14 00:20:31;;;;;;;28.90;6.45;;;;;;;;;;5032610;28;20040;-63
2022/11/14 00:22:58;;;;;;;33.00;6.20;;;;;;;;;;5031429;28;20057;-58
2022/11/14 00:25:25;;;;;;;26.23;5.18;;;;;;;;;;5000798;28;20038;-62
2022/11/14 00:27:52;;;;;;;26.63;6.00;;;;;;;;;;4994663;28;20045;-62
2022/11/14 00:30:19;;;;;;;27.95;5.93;;;;;;;;;;5002309;28;20088;-62
2022/11/14 00:32:46;;;;;;;33.75;6.03;;;;;;;;;;5009082;28;20026;-62
2022/11/14 00:35:13;;;;;;;26.05;5.68;;;;;;;;;;4995511;28;20088;-61
2022/11/14 00:37:40;;;;;;;21.35;5.85;;;;;;;;;;4992577;28;20109;-64
2022/11/14 00:40:07;;;;;;;31.23;6.07;;;;;;;;;;4995553;28;20026;-59
2022/11/14 00:42:35;;;;;;;21.48;5.45;;;;;;;;;;5012294;28;20038;-59
2022/11/14 00:45:01;;;;;;;28.15;5.60;;;;;;;;;;5020142;28;20044;-59
2022/11/14 00:47:29;;;;;;;27.35;6.43;;;;;;;;;;5031703;28;20033;-62
2022/11/14 00:49:56;;;;;;;24.42;6.15;;;;;;;;;;5032148;28;20108;-59
2022/11/14 00:52:23;;;;;;;27.38;5.93;;;;;;;;;;5031765;28;20083;-61
2022/11/14 00:54:53;;;;;;;25.05;5.55;;;;;;;;;;5018031;28;20444;-61
2022/11/14 00:57:20;;;;;;;23.73;6.00;;;;;;;;;;5016534;28;20382;-59
2022/11/14 00:59:47;;;;;;;23.40;5.28;;;;;;;;;;5032029;28;20087;-59
2022/11/14 01:02:14;;;;;;;19.35;4.88;;;;;;;;;;5031955;28;20047;-59
2022/11/14 01:04:41;;;;;;;27.15;5.13;;;;;;;;;;5031591;28;20402;-59
2022/11/14 01:07:08;;;;;;;23.40;5.13;;;;;;;;;;5024876;28;20125;-62
2022/11/14 01:09:35;;;;;;;16.80;5.07;;;;;;;;;;5031947;28;20083;-58
2022/11/14 01:12:02;;;;;;;17.13;4.63;;;;;;;;;;5030264;28;20029;-60
2022/11/14 01:14:29;;;;;;;18.83;4.43;;;;;;;;;;4998313;28;20030;-61
2022/11/14 01:16:56;;;;;;;19.13;5.03;;;;;;;;;;5004026;28;20026;-62
2022/11/14 01:19:23;;;;;;;17.23;4.35;;;;;;;;;;5031329;28;20029;-61
2022/11/14 01:21:50;;;;;;;16.95;4.68;;;;;;;;;;5031381;28;20040;-59
2022/11/14 01:24:17;;;;;;;15.82;4.47;;;;;;;;;;5017513;28;20045;-59
2022/11/14 01:26:44;;;;;;;23.27;4.30;;;;;;;;;;4998417;28;20522;-61
2022/11/14 01:29:10;;;;;;;17.42;4.43;;;;;;;;;;5010484;28;20113;-60
2022/11/14 01:31:37;;;;;;;15.82;4.35;;;;;;;;;;4997874;28;20065;-60
2022/11/14 01:34:05;;;;;;;16.70;4.63;;;;;;;;;;4995561;28;20430;-62
2022/11/14 01:36:32;;;;;;;17.63;4.70;;;;;;;;;;4996762;28;20038;-63
2022/11/14 01:38:59;;;;;;;15.88;4.40;;;;;;;;;;4995405;28;20077;-60
2022/11/14 01:41:27;;;;;;;14.88;4.50;;;;;;;;;;4998498;28;20035;-61
2022/11/14 01:43:54;;;;;;;13.13;4.25;;;;;;;;;;4997998;28;20081;-60
2022/11/14 01:46:21;;;;;;;15.77;4.40;;;;;;;;;;4996545;28;20041;-62
2022/11/14 01:48:55;;;;;;;12.13;3.83;;;;;;;;;;4996739;28;20042;-61
2022/11/14 01:51:23;;;;;;;14.25;3.92;;;;;;;;;;5008634;28;20025;-61
2022/11/14 01:53:53;;;;;;;15.32;4.32;;;;;;;;;;5010498;28;20101;-63
2022/11/14 01:56:23;;;;;;;12.15;3.92;;;;;;;;;;5009962;28;20430;-63
2022/11/14 01:58:53;;;;;;;9.90;3.53;;;;;;;;;;5010444;28;20479;-63
2022/11/14 02:01:20;;;;;;;14.75;4.15;;;;;;;;;;5014121;28;20029;-62
2022/11/14 02:03:50;;;;;;;12.98;3.65;;;;;;;;;;5014190;28;20034;-63
2022/11/14 02:06:19;;;;;;;11.32;3.95;;;;;;;;;;5014049;28;20108;-60
2022/11/14 02:08:47;;;;;;;11.43;3.65;;;;;;;;;;5013604;28;20438;-60
2022/11/14 02:11:14;;;;;;;12.30;4.25;;;;;;;;;;5014342;28;20490;-60
2022/11/14 02:13:41;;;;;;;10.82;3.55;;;;;;;;;;5015299;28;20057;-59
2022/11/14 02:16:08;;;;;;;10.68;3.58;;;;;;;;;;5015327;28;20386;-60
2022/11/14 02:18:35;;;;;;;10.35;3.25;;;;;;;;;;5029449;28;20026;-59
2022/11/14 02:21:02;;;;;;;12.35;3.83;;;;;;;;;;5034189;28;20502;-62
2022/11/14 02:23:30;;;;;;;10.52;3.58;;;;;;;;;;5034049;28;20061;-60
2022/11/14 02:25:57;;;;;;;9.23;3.50;;;;;;;;;;5035448;28;20025;-62
2022/11/14 02:28:24;;;;;;;10.50;3.70;;;;;;;;;;5035478;28;20044;-62
2022/11/14 02:30:51;;;;;;;9.60;3.42;;;;;;;;;;5035024;28;20391;-60
2022/11/14 02:33:18;;;;;;;10.38;3.53;;;;;;;;;;5013752;28;20080;-62
2022/11/14 02:35:45;;;;;;;8.30;2.75;;;;;;;;;;4995552;28;20121;-60
2022/11/14 02:38:12;;;;;;;8.48;3.00;;;;;;;;;;4995445;28;20034;-60
2022/11/14 02:40:39;;;;;;;10.27;3.13;;;;;;;;;;4995450;28;20034;-62
2022/11/14 02:43:06;;;;;;;8.35;3.20;;;;;;;;;;4995430;28;20042;-59
2022/11/14 02:45:33;;;;;;;11.00;3.50;;;;;;;;;;4995472;28;20022;-60
2022/11/14 02:48:00;;;;;;;10.13;2.72;;;;;;;;;;5025206;28;20030;-62
2022/11/14 02:50:27;;;;;;;9.52;3.30;;;;;;;;;;5035314;28;20025;-59
2022/11/14 02:52:54;;;;;;;7.32;3.00;;;;;;;;;;5034983;28;20033;-60
2022/11/14 02:55:21;;;;;;;6.50;2.78;;;;;;;;;;5031763;28;20021;-62
2022/11/14 02:57:49;;;;;;;10.35;3.53;;;;;;;;;;5024645;28;20033;-62
2022/11/14 03:00:16;;;;;;;9.52;3.30;;;;;;;;;;5035055;28;20086;-62
2022/11/14 03:02:43;;;;;;;6.90;2.90;;;;;;;;;;5034653;28;20029;-59
2022/11/14 03:05:10;;;;;;;8.02;2.92;;;;;;;;;;5034902;28;20076;-60
2022/11/14 03:07:37;;;;;;;6.50;2.65;;;;;;;;;;5034953;28;20483;-60
2022/11/14 03:10:04;;;;;;;9.60;2.95;;;;;;;;;;5034858;28;20044;-60
2022/11/14 03:12:31;;;;;;;5.93;2.60;;;;;;;;;;5034596;28;20491;-60
2022/11/14 03:14:58;;;;;;;8.45;3.15;;;;;;;;;;5034731;28;20044;-60
2022/11/14 03:17:25;;;;;;;6.78;3.03;;;;;;;;;;5034668;28;20121;-62
2022/11/14 03:19:52;;;;;;;7.68;3.30;;;;;;;;;;5034749;28;20395;-60
2022/11/14 03:22:19;;;;;;;5.28;2.53;;;;;;;;;;5034583;28;20483;-59
2022/11/14 03:24:45;;;;;;;6.50;2.80;;;;;;;;;;5034385;28;20053;-62
2022/11/14 03:27:12;;;;;;;8.55;3.05;;;;;;;;;;5034608;28;20025;-60
2022/11/14 03:29:39;;;;;;;4.40;2.20;;;;;;;;;;5034332;28;20049;-62
2022/11/14 03:32:06;;;;;;;4.57;2.35;;;;;;;;;;5034523;28;20033;-62
2022/11/14 03:34:33;;;;;;;5.35;2.60;;;;;;;;;;5034329;28;20036;-62
2022/11/14 03:37:00;;;;;;;5.97;2.47;;;;;;;;;;5034437;28;20037;-60
2022/11/14 03:39:27;;;;;;;6.07;2.95;;;;;;;;;;5034384;28;20506;-62
2022/11/14 03:41:54;;;;;;;5.60;2.42;;;;;;;;;;5034372;28;20360;-60
2022/11/14 03:44:22;;;;;;;5.55;2.55;;;;;;;;;;5034141;28;20044;-59
2022/11/14 03:46:49;;;;;;;8.13;2.33;;;;;;;;;;5034274;28;20033;-62
2022/11/14 03:49:15;;;;;;;6.47;2.50;;;;;;;;;;5034150;28;20412;-59
2022/11/14 03:51:42;;;;;;;5.88;2.70;;;;;;;;;;5034049;28;20055;-60
2022/11/14 03:54:10;;;;;;;4.50;2.35;;;;;;;;;;5033986;28;20029;-60
2022/11/14 03:56:37;;;;;;;6.60;2.22;;;;;;;;;;5020722;28;20029;-60
2022/11/14 03:59:03;;;;;;;5.05;2.17;;;;;;;;;;5033579;28;20029;-62
2022/11/14 04:01:30;;;;;;;5.90;2.67;;;;;;;;;;5033887;28;20090;-62
2022/11/14 04:03:57;;;;;;;6.10;2.10;;;;;;;;;;5033771;28;20036;-62
2022/11/14 04:06:24;;;;;;;4.70;2.13;;;;;;;;;;5033856;28;20112;-60
2022/11/14 04:08:51;;;;;;;4.13;2.00;;;;;;;;;;5033618;28;20032;-59
2022/11/14 04:11:19;;;;;;;5.63;2.30;;;;;;;;;;5033793;28;20041;-59
2022/11/14 04:13:46;;;;;;;4.65;2.22;;;;;;;;;;5033702;28;20042;-60
2022/11/14 04:16:13;;;;;;;4.55;2.00;;;;;;;;;;5033694;28;20048;-60
2022/11/14 04:18:40;;;;;;;5.20;2.05;;;;;;;;;;5033741;28;20071;-62
2022/11/14 04:21:06;;;;;;;4.50;2.00;;;;;;;;;;5033543;28;20030;-59
2022/11/14 04:23:33;;;;;;;5.18;1.98;;;;;;;;;;5032543;28;20479;-62
2022/11/14 04:26:01;;;;;;;5.28;1.92;;;;;;;;;;5033336;28;20022;-59
2022/11/14 04:28:27;;;;;;;4.68;2.10;;;;;;;;;;5033349;28;20033;-59
2022/11/14 04:30:54;;;;;;;3.88;2.00;;;;;;;;;;5033321;28;20033;-59
2022/11/14 04:33:21;;;;;;;3.85;1.73;;;;;;;;;;5033350;28;20068;-62
2022/11/14 04:35:48;;;;;;;4.22;1.60;;;;;;;;;;5033167;28;20041;-62
2022/11/14 04:38:15;;;;;;;5.28;1.70;;;;;;;;;;5031278;28;20025;-60
2022/11/14 04:40:48;;;;;;;3.35;1.67;;;;;;;;;;5033261;28;20029;-62
2022/11/14 04:43:15;;;;;;;5.45;1.70;;;;;;;;;;5033155;28;20044;-62
2022/11/14 04:45:42;;;;;;;3.30;1.58;;;;;;;;;;5033157;28;20429;-60
2022/11/14 04:48:09;;;;;;;3.50;1.60;;;;;;;;;;5032943;28;20041;-60
2022/11/14 04:50:36;;;;;;;3.70;1.60;;;;;;;;;;5033100;28;20041;-62
2022/11/14 04:53:03;;;;;;;2.65;1.38;;;;;;;;;;5032748;28;20033;-62
2022/11/14 04:55:30;;;;;;;3.03;1.75;;;;;;;;;;5028746;28;20061;-59
2022/11/14 04:57:57;;;;;;;3.38;1.67;;;;;;;;;;5023771;28;20115;-59
2022/11/14 05:00:25;;;;;;;2.60;1.65;;;;;;;;;;5032777;28;20033;-62
2022/11/14 05:02:52;;;;;;;3.05;1.40;;;;;;;;;;5032923;28;20133;-60
2022/11/14 05:05:19;;;;;;;3.42;1.58;;;;;;;;;;5032606;28;20049;-62
2022/11/14 05:07:46;;;;;;;2.53;1.50;;;;;;;;;;5032884;28;20131;-62
2022/11/14 05:10:13;;;;;;;4.03;1.40;;;;;;;;;;5032734;28;20037;-62
2022/11/14 05:12:40;;;;;;;4.35;1.55;;;;;;;;;;5032743;28;20033;-62
2022/11/14 05:15:07;;;;;;;2.45;1.50;;;;;;;;;;5032487;28;20036;-62
2022/11/14 05:17:34;;;;;;;2.83;1.40;;;;;;;;;;5032610;28;20029;-62
2022/11/14 05:20:01;;;;;;;2.15;1.30;;;;;;;;;;5032739;28;20029;-62
2022/11/14 05:22:28;;;;;;;2.92;1.30;;;;;;;;;;5032538;28;20388;-62
2022/11/14 05:24:55;;;;;;;3.40;1.30;;;;;;;;;;5032358;28;20056;-62
2022/11/14 05:27:22;;;;;;;2.42;1.17;;;;;;;;;;5032381;28;20479;-60
2022/11/14 05:29:49;;;;;;;3.17;1.27;;;;;;;;;;5032514;28;20033;-62
2022/11/14 05:32:16;;;;;;;3.70;1.25;;;;;;;;;;5032536;28;20033;-59
2022/11/14 05:34:43;;;;;;;1.70;1.05;;;;;;;;;;5032250;28;20029;-60
2022/11/14 05:37:10;;;;;;;2.72;1.27;;;;;;;;;;5032554;28;20462;-59
2022/11/14 05:39:37;;;;;;;2.17;1.10;;;;;;;;;;5030949;28;20025;-62
2022/11/14 05:42:05;;;;;;;2.85;1.40;;;;;;;;;;5032403;28;20029;-62
2022/11/14 05:44:32;;;;;;;1.50;1.20;;;;;;;;;;5031981;28;20038;-62
2022/11/14 05:46:59;;;;;;;4.32;1.42;;;;;;;;;;5032361;28;20042;-62
2022/11/14 05:49:26;;;;;;;2.40;1.30;;;;;;;;;;5032018;28;20038;-59
2022/11/14 05:51:53;;;;;;;2.28;1.00;;;;;;;;;;5032390;28;20033;-61
2022/11/14 05:54:19;;;;;;;1.17;0.90;;;;;;;;;;5032004;28;20033;-62
2022/11/14 05:56:46;;;;;;;2.58;1.23;;;;;;;;;;5018219;28;20053;-59
2022/11/14 05:59:13;;;;;;;1.67;1.02;;;;;;;;;;5032268;28;20052;-59
2022/11/14 06:01:40;;;;;;;2.10;1.30;;;;;;;;;;5021673;28;20034;-62
2022/11/14 06:04:07;;;;;;;2.78;1.00;;;;;;;;;;5031371;28;20032;-59
2022/11/14 06:06:34;;;;;;;1.98;0.90;;;;;;;;;;5032063;28;20069;-59
2022/11/14 06:09:01;;;;;;;2.20;0.93;;;;;;;;;;5031874;28;20037;-62
2022/11/14 06:11:28;;;;;;;1.60;1.00;;;;;;;;;;5032090;28;20030;-62
2022/11/14 06:13:55;;;;;;;1.48;1.00;;;;;;;;;;5031877;28;20514;-62
2022/11/14 06:16:22;;;;;;;2.33;1.30;;;;;;;;;;5032073;28;20060;-62
2022/11/14 06:18:49;;;;;;;2.22;0.90;;;;;;;;;;5032034;28;20030;-61
2022/11/14 06:21:18;;;;;;;1.83;1.00;;;;;;;;;;5032021;28;20037;-59
2022/11/14 06:23:45;;;;;;;1.17;0.85;;;;;;;;;;5031717;28;20046;-62
2022/11/14 06:26:26;;;;;;;1.55;1.00;;;;;;;;;;5031889;28;20056;-62
2022/11/14 06:28:53;;;;;;;1.42;0.88;;;;;;;;;;5018917;28;20026;-59
2022/11/14 06:31:21;;;;;;;1.73;0.80;;;;;;;;;;5031090;28;20387;-63
2022/11/14 06:33:48;;;;;;;2.22;0.70;;;;;;;;;;5031860;28;20505;-59
2022/11/14 06:36:15;;;;;;;1.10;0.60;;;;;;;;;;5031750;28;20030;-59
2022/11/14 06:38:43;;;;;;;1.25;0.90;;;;;;;;;;5031817;28;20075;-62
2022/11/14 06:41:14;;;;;;;1.83;0.90;;;;;;;;;;5031751;28;20038;-62
2022/11/14 06:43:54;;;;;;;1.20;0.88;;;;;;;;;;5031575;28;20419;-62
2022/11/14 06:46:22;;;;;;;1.38;0.93;;;;;;;;;;5033288;28;20037;-59
2022/11/14 06:48:51;;;;;;;1.05;0.63;;;;;;;;;;5035162;28;20144;-59
2022/11/14 06:51:18;;;;;;;1.38;0.90;;;;;;;;;;5035425;28;20438;-60
2022/11/14 06:53:45;;;;;;;1.42;0.80;;;;;;;;;;5035257;28;20037;-60
2022/11/14 06:56:14;;;;;;;2.67;0.75;;;;;;;;;;5025118;28;20111;-62
2022/11/14 06:58:42;;;;;;;1.60;0.80;;;;;;;;;;5031650;28;20076;-62
2022/11/14 07:01:13;;;;;;;1.42;0.70;;;;;;;;;;5035213;28;20034;-61
2022/11/14 07:03:41;;;;;;;1.03;0.77;;;;;;;;;;5034960;28;20029;-60
2022/11/14 07:06:09;;;;;;;0.77;0.63;;;;;;;;;;5035119;28;20029;-61
2022/11/14 07:08:36;;;;;;;1.40;0.75;;;;;;;;;;5034615;28;20521;-62
2022/11/14 07:11:04;;;;;;;1.25;0.70;;;;;;;;;;5034994;28;20083;-62
2022/11/14 07:13:31;;;;;;;1.23;0.73;;;;;;;;;;5034812;28;20553;-60
2022/11/14 07:15:58;;;;;;;1.00;0.70;;;;;;;;;;5034791;28;20406;-59
2022/11/14 07:18:25;;;;;;;1.00;0.77;;;;;;;;;;5034811;28;20032;-62
2022/11/14 07:21:03;;;;;;;1.65;0.80;;;;;;;;;;5034652;28;20037;-62
2022/11/14 07:23:31;;;;;;;1.45;0.50;;;;;;;;;;5034564;28;20541;-59
2022/11/14 07:26:07;;;;;;;2.15;0.73;;;;;;;;;;5034572;28;20029;-60
2022/11/14 07:28:35;;;;;;;0.90;0.60;;;;;;;;;;5034573;28;20029;-62
2022/11/14 07:31:05;;;;;;;0.82;0.50;;;;;;;;;;5034426;28;20037;-59
2022/11/14 07:33:33;;;;;;;1.33;0.70;;;;;;;;;;5034492;28;20095;-59
2022/11/14 07:36:00;;;;;;;1.02;0.60;;;;;;;;;;5034585;28;20090;-61
2022/11/14 07:38:27;;;;;;;0.90;0.63;;;;;;;;;;5034398;28;20376;-62
2022/11/14 07:40:54;;;;;;;1.65;0.60;;;;;;;;;;5034481;28;20506;-62
2022/11/14 07:43:21;;;;;;;0.80;0.43;;;;;;;;;;5034403;28;20068;-61
2022/11/14 07:45:48;;;;;;;0.88;0.57;;;;;;;;;;5034255;28;20053;-60
2022/11/14 07:48:15;;;;;;;0.60;0.52;;;;;;;;;;5034221;28;20034;-59
2022/11/14 07:50:43;;;;;;;0.60;0.57;;;;;;;;;;5034386;28;20033;-61
2022/11/14 07:53:10;;;;;;;1.00;0.68;;;;;;;;;;5034141;28;20341;-59
2022/11/14 07:55:37;;;;;;;0.65;0.43;;;;;;;;;;5028834;28;20022;-59
2022/11/14 07:58:05;;;;;;;1.30;0.50;;;;;;;;;;5024689;28;20506;-59
2022/11/14 08:00:32;;;;;;;0.80;0.60;;;;;;;;;;5034037;28;20545;-59
2022/11/14 08:02:58;;;;;;;1.52;0.60;;;;;;;;;;5034280;28;20390;-61
2022/11/14 08:05:25;;;;;;;1.17;0.70;;;;;;;;;;5033820;28;20029;-62
2022/11/14 08:07:53;;;;;;;0.82;0.60;;;;;;;;;;5033956;28;20029;-61
2022/11/14 08:10:20;;;;;;;0.70;0.50;;;;;;;;;;5033651;28;20041;-62
2022/11/14 08:12:47;;;;;;;0.70;0.50;;;;;;;;;;5033942;28;20065;-61
2022/11/14 08:15:14;;;;;;;1.00;0.57;;;;;;;;;;5033695;28;20038;-59
2022/11/14 08:17:41;;;;;;;0.50;0.50;;;;;;;;;;5033797;28;20088;-60
2022/11/14 08:20:08;;;;;;;1.10;0.45;;;;;;;;;;5033706;28;20485;-61
2022/11/14 08:22:35;;;;;;;0.47;0.40;;;;;;;;;;5033518;28;20095;-62
2022/11/14 08:25:02;;;;;;;1.60;0.50;;;;;;;;;;5033320;28;20041;-61
2022/11/14 08:27:29;;;;;;;0.70;0.47;;;;;;;;;;5033284;28;20029;-61
2022/11/14 08:29:56;;;;;;;3.17;0.60;;;;;;;;;;5033503;28;20048;-59
2022/11/14 08:32:23;;;;;;;2.45;0.50;;;;;;;;;;5033480;28;20112;-61
2022/11/14 08:34:50;;;;;;;0.55;0.52;;;;;;;;;;5033248;28;20044;-61
2022/11/14 08:37:17;;;;;;;0.85;0.38;;;;;;;;;;5033470;28;20040;-61
2022/11/14 08:39:44;;;;;;;0.50;0.50;;;;;;;;;;5033158;28;20383;-59
2022/11/14 08:42:11;;;;;;;1.23;0.47;;;;;;;;;;5033280;28;20116;-61
2022/11/14 08:44:38;;;;;;;0.80;0.50;;;;;;;;;;5033075;28;20423;-61
2022/11/14 08:47:05;;;;;;;1.27;0.55;;;;;;;;;;5033134;28;20030;-59
2022/11/14 08:49:32;;;;;;;0.70;0.50;;;;;;;;;;5019040;28;20064;-59
2022/11/14 08:51:59;;;;;;;0.47;0.40;;;;;;;;;;5033115;28;20033;-59
2022/11/14 08:54:26;;;;;;;0.85;0.45;;;;;;;;;;5032886;28;20025;-62
2022/11/14 08:56:53;;;;;;;0.77;0.60;;;;;;;;;;5019006;28;20476;-61
2022/11/14 08:59:19;;;;;;;0.65;0.50;;;;;;;;;;5032985;28;20128;-61
2022/11/14 09:01:46;;;;;;;1.02;0.52;;;;;;;;;;5032895;28;20029;-59
2022/11/14 09:04:13;;;;;;;0.40;0.40;;;;;;;;;;5032856;28;20104;-61
2022/11/14 09:06:40;;;;;;;0.77;0.40;;;;;;;;;;5032858;28;20025;-59
2022/11/14 09:09:07;;;;;;;0.55;0.40;;;;;;;;;;5032408;28;20034;-61
2022/11/14 09:11:34;;;;;;;2.50;0.50;;;;;;;;;;5032874;28;20029;-62
2022/11/14 09:14:01;;;;;;;1.17;0.50;;;;;;;;;;5032520;28;20105;-61
2022/11/14 09:16:28;;;;;;;2.05;0.50;;;;;;;;;;5032724;28;20083;-59
2022/11/14 09:18:55;;;;;;;0.30;0.30;;;;;;;;;;5032730;28;20030;-59
2022/11/14 09:21:22;;;;;;;0.50;0.40;;;;;;;;;;5032637;28;20044;-61
2022/11/14 09:23:49;;;;;;;1.73;0.50;;;;;;;;;;5032313;28;20049;-61
2022/11/14 09:26:17;;;;;;;0.80;0.50;;;;;;;;;;5032546;28;20120;-61
2022/11/14 09:28:44;;;;;;;0.50;0.35;;;;;;;;;;5032529;28;20088;-59
2022/11/14 09:31:12;;;;;;;0.73;0.60;;;;;;;;;;5032416;28;20091;-61
2022/11/14 09:33:39;;;;;;;3.72;0.60;;;;;;;;;;5032356;28;20079;-62
2022/11/14 09:36:07;;;;;;;3.63;0.60;;;;;;;;;;5032468;28;20048;-60
2022/11/14 09:38:34;;;;;;;4.40;0.60;;;;;;;;;;5032064;28;20032;-61
2022/11/14 09:41:01;;;;;;;3.67;0.90;;;;;;;;;;5015826;28;20653;-62
2022/11/14 09:43:28;;;;;;;2.90;0.52;;;;;;;;;;5012020;28;20113;-63
2022/11/14 09:45:55;;;;;;;1.90;0.50;;;;;;;;;;5012207;28;20018;-59
2022/11/14 09:48:28;;;;;;;3.47;0.70;;;;;;;;;;5011608;28;20045;-59
2022/11/14 09:51:18;;;;;;;1.77;0.52;;;;;;;;;;5023912;28;20041;-61
2022/11/14 09:53:45;;;;;;;1.75;0.60;;;;;;;;;;5022058;28;20183;-59
2022/11/14 09:56:13;;;;;;;0.63;0.40;;;;;;;;;;5022271;28;20609;-62
2022/11/14 09:58:41;;;;;;;0.77;0.50;;;;;;;;;;5029865;28;20463;-59
2022/11/14 10:01:17;;;;;;;2.13;0.50;;;;;;;;;;5032265;28;20048;-61
2022/11/14 10:04:04;;;;;;;1.23;0.50;;;;;;;;;;5031984;28;20450;-59
2022/11/14 10:06:33;;;;;;;2.05;0.60;;;;;;;;;;5032228;28;20056;-59
2022/11/14 10:09:03;;;;;;;2.83;0.40;;;;;;;;;;5031948;28;20032;-61
2022/11/14 10:11:38;;;;;;;2.72;0.60;;;;;;;;;;5032195;28;20483;-59
2022/11/14 10:14:25;;;;;;;0.68;0.55;;;;;;;;;;5031962;28;20049;-62
2022/11/14 10:16:56;;;;;;;0.68;0.50;;;;;;;;;;5032173;28;20025;-61
2022/11/14 10:19:27;;;;;;;1.88;0.50;;;;;;;;;;5032048;28;20105;-61
2022/11/14 10:21:57;;;;;;;2.50;0.57;;;;;;;;;;5034812;28;20037;-61
2022/11/14 10:24:44;;;;;;;2.10;0.60;;;;;;;;;;5035436;28;20045;-59
2022/11/14 10:27:25;;;;;;;2.83;0.50;;;;;;;;;;5035722;28;20025;-61
2022/11/14 10:29:52;;;;;;;0.98;0.60;;;;;;;;;;5035763;28;20052;-61
2022/11/14 10:32:28;;;;;;;2.47;0.40;;;;;;;;;;5035707;28;20033;-59
2022/11/14 10:35:08;;;;;;;1.27;0.45;;;;;;;;;;5035607;28;20487;-60
2022/11/14 10:37:58;;;;;;;1.75;0.43;;;;;;;;;;5035588;28;20025;-61
2022/11/14 10:40:26;;;;;;;0.60;0.45;;;;;;;;;;4998773;28;20044;-59
2022/11/14 10:43:00;;;;;;;0.75;0.40;;;;;;;;;;5021569;28;20111;-59
2022/11/14 10:45:43;;;;;;;0.73;0.40;;;;;;;;;;5035436;28;20053;-60
2022/11/14 10:48:13;;;;;;;0.90;0.50;;;;;;;;;;5035278;28;20037;-61
2022/11/14 10:50:44;;;;;;;2.47;0.40;;;;;;;;;;5035433;28;20462;-61
2022/11/14 10:53:31;;;;;;;0.75;0.40;;;;;;;;;;5031922;28;20036;-61
2022/11/14 10:55:59;;;;;;;1.50;0.40;;;;;;;;;;5019485;28;20069;-61
2022/11/14 10:58:26;;;;;;;0.30;0.30;;;;;;;;;;5029750;28;20108;-62
2022/11/14 11:00:52;;;;;;;0.70;0.40;;;;;;;;;;5025239;28;20053;-59
2022/11/14 11:03:19;;;;;;;0.65;0.40;;;;;;;;;;5028165;28;20030;-61
2022/11/14 11:05:46;;;;;;;0.63;0.38;;;;;;;;;;5033615;28;20033;-61
2022/11/14 11:13:57;;;;;;;1.75;0.55;;;;;;;;;;5034939;28;20186;-60
2022/11/14 11:16:25;;;;;;;0.88;0.50;;;;;;;;;;5034989;28;20029;-60
2022/11/14 11:18:52;;;;;;;0.47;0.40;;;;;;;;;;5034831;28;20017;-61
2022/11/14 11:21:20;;;;;;;0.82;0.38;;;;;;;;;;5034902;28;20033;-61
2022/11/14 11:23:49;;;;;;;0.52;0.40;;;;;;;;;;5034658;28;20055;-59
2022/11/14 11:26:29;;;;;;;0.55;0.20;;;;;;;;;;5034689;28;20033;-59
2022/11/14 11:29:05;;;;;;;1.05;0.55;;;;;;;;;;5034693;28;20025;-59
2022/11/14 11:32:04;;;;;;;1.27;0.60;;;;;;;;;;5034562;28;20121;-59
2022/11/14 11:34:32;;;;;;;0.77;0.50;;;;;;;;;;4991164;28;20124;-61
2022/11/14 11:37:25;;;;;;;0.57;0.50;;;;;;;;;;5028702;28;20510;-61
2022/11/14 11:39:56;;;;;;;1.50;0.40;;;;;;;;;;5004315;28;20049;-61
2022/11/14 11:42:33;;;;;;;0.73;0.40;;;;;;;;;;5033154;28;20036;-60
2022/11/14 11:45:02;;;;;;;0.55;0.38;;;;;;;;;;5028366;28;20025;-59
2022/11/14 11:47:31;;;;;;;0.45;0.40;;;;;;;;;;5026168;28;20103;-60
2022/11/14 11:49:58;;;;;;;1.08;0.43;;;;;;;;;;5015174;28;20469;-59
2022/11/14 11:52:39;;;;;;;0.93;0.50;;;;;;;;;;5034171;28;20116;-59
2022/11/14 11:55:09;;;;;;;0.70;0.40;;;;;;;;;;5032962;28;20026;-61
2022/11/14 11:57:43;;;;;;;1.67;0.50;;;;;;;;;;5021960;28;20025;-58
2022/11/14 12:00:16;;;;;;;0.95;0.47;;;;;;;;;;5034036;28;20088;-61
2022/11/14 12:02:46;;;;;;;2.33;0.50;;;;;;;;;;5033957;28;20048;-58
2022/11/14 12:05:25;;;;;;;1.42;0.63;;;;;;;;;;5027838;28;20044;-60
2022/11/14 12:08:08;;;;;;;1.58;0.68;;;;;;;;;;5013417;28;20076;-59
2022/11/14 12:10:38;;;;;;;3.33;0.57;;;;;;;;;;5025951;28;20044;-58
2022/11/14 12:13:08;;;;;;;3.75;0.65;;;;;;;;;;5033769;28;20029;-62
2022/11/14 12:15:35;;;;;;;4.43;0.63;;;;;;;;;;5033727;28;20028;-58
2022/11/14 12:18:07;;;;;;;2.05;0.68;;;;;;;;;;5033504;28;20047;-59
2022/11/14 12:20:40;;;;;;;5.05;0.80;;;;;;;;;;5022571;28;20034;-60
2022/11/14 12:23:10;;;;;;;2.35;0.50;;;;;;;;;;5013206;28;20022;-58
2022/11/14 12:25:40;;;;;;;4.10;0.57;;;;;;;;;;5016137;28;20042;-59
2022/11/14 12:28:15;;;;;;;1.70;0.70;;;;;;;;;;5031855;28;20084;-60
2022/11/14 12:30:47;;;;;;;4.63;0.60;;;;;;;;;;5013248;28;20029;-58
2022/11/14 12:33:34;;;;;;;2.15;0.75;;;;;;;;;;5020722;28;20033;-59
2022/11/14 12:36:02;;;;;;;2.63;0.60;;;;;;;;;;5017789;28;20056;-59
2022/11/14 12:38:32;;;;;;;1.90;0.60;;;;;;;;;;5022074;28;20360;-61
2022/11/14 12:41:00;;;;;;;2.15;0.63;;;;;;;;;;5022423;28;20550;-58
2022/11/14 12:43:27;;;;;;;2.88;0.60;;;;;;;;;;5032469;28;20421;-61
2022/11/14 12:45:54;;;;;;;3.35;0.50;;;;;;;;;;5027023;28;20029;-60
2022/11/14 12:48:24;;;;;;;1.92;0.60;;;;;;;;;;5004075;28;20471;-60
2022/11/14 12:50:51;;;;;;;3.45;0.60;;;;;;;;;;4995996;28;20480;-59
2022/11/14 12:53:36;;;;;;;5.80;0.70;;;;;;;;;;5028880;28;20036;-61
2022/11/14 12:56:21;;;;;;;3.92;0.70;;;;;;;;;;4994521;28;20023;-58
2022/11/14 12:59:05;;;;;;;3.03;0.60;;;;;;;;;;4993235;28;20053;-58
2022/11/14 13:01:51;;;;;;;6.97;0.70;;;;;;;;;;4992553;28;20038;-61
2022/11/14 13:04:29;;;;;;;4.68;0.70;;;;;;;;;;4997849;28;20103;-58
2022/11/14 13:07:08;;;;;;;4.03;0.65;;;;;;;;;;5031762;28;20113;-57
2022/11/14 13:09:53;;;;;;;3.97;0.70;;;;;;;;;;5032502;28;20483;-54
2022/11/14 13:24:03;;;;;;;3.03;0.60;;;;;;;;;;5032297;28;20064;-57
2022/11/14 13:26:30;;;;;;;1.30;0.55;;;;;;;;;;5032403;28;20033;-57
2022/11/14 13:28:57;;;;;;;2.60;0.40;;;;;;;;;;5031972;28;20040;-59
2022/11/14 13:31:25;;;;;;;2.70;0.70;;;;;;;;;;5004050;28;20117;-58
2022/11/14 13:33:53;;;;;;;2.28;0.90;;;;;;;;;;5031516;28;20419;-59
2022/11/14 13:36:35;;;;;;;2.05;0.40;;;;;;;;;;5031988;28;20057;-58
2022/11/14 13:39:12;;;;;;;0.95;0.40;;;;;;;;;;5030960;28;20474;-61
2022/11/14 13:41:45;;;;;;;3.08;0.52;;;;;;;;;;5031474;28;20045;-58
2022/11/14 13:44:21;;;;;;;3.53;0.50;;;;;;;;;;5031378;28;20064;-54
2022/11/14 13:46:48;;;;;;;5.45;0.60;;;;;;;;;;5031345;28;20018;-55
2022/11/14 13:49:38;;;;;;;4.13;0.55;;;;;;;;;;5032190;28;20044;-57
2022/11/14 13:52:05;;;;;;;6.30;0.50;;;;;;;;;;5005899;28;20056;-56
2022/11/14 13:54:32;;;;;;;2.50;0.45;;;;;;;;;;5023219;28;20033;-57
2022/11/14 13:57:02;;;;;;;5.32;0.63;;;;;;;;;;5010605;28;20387;-61
2022/11/14 13:59:52;;;;;;;3.97;0.60;;;;;;;;;;4996358;28;20092;-59
2022/11/14 14:02:39;;;;;;;3.85;0.68;;;;;;;;;;4990664;28;20117;-61
2022/11/14 14:05:27;;;;;;;3.00;0.43;;;;;;;;;;4998349;28;20164;-58
2022/11/14 14:07:54;;;;;;;4.05;0.70;;;;;;;;;;4995458;28;20058;-59
2022/11/14 14:10:30;;;;;;;4.97;0.73;;;;;;;;;;5009898;28;20025;-59
2022/11/14 14:13:00;;;;;;;8.43;0.70;;;;;;;;;;5007441;28;20113;-58
2022/11/14 14:15:34;;;;;;;5.40;0.60;;;;;;;;;;5026289;28;20030;-61
2022/11/14 14:18:06;;;;;;;3.47;0.60;;;;;;;;;;5015046;28;20427;-59
2022/11/14 14:20:42;;;;;;;7.40;0.55;;;;;;;;;;5015755;28;20028;-59
2022/11/14 14:23:25;;;;;;;5.75;0.70;;;;;;;;;;5015719;28;20025;-62
2022/11/14 14:26:00;;;;;;;3.58;0.80;;;;;;;;;;5033107;28;20021;-59
2022/11/14 14:28:52;;;;;;;5.82;0.77;;;;;;;;;;5029946;28;20065;-58
2022/11/14 14:31:22;;;;;;;6.40;1.10;;;;;;;;;;5002514;28;20045;-57
2022/11/14 14:33:50;;;;;;;2.47;0.60;;;;;;;;;;5006267;28;20053;-62
2022/11/14 14:36:18;;;;;;;7.85;0.60;;;;;;;;;;5014426;28;20096;-61
2022/11/14 14:38:45;;;;;;;7.70;1.02;;;;;;;;;;5014811;28;20483;-59
2022/11/14 14:41:13;;;;;;;3.58;0.60;;;;;;;;;;5031919;28;20402;-58
2022/11/14 14:43:42;;;;;;;3.38;0.70;;;;;;;;;;5016930;28;20033;-58
2022/11/14 14:46:08;;;;;;;4.25;0.50;;;;;;;;;;5027087;28;20022;-59
2022/11/14 14:48:39;;;;;;;4.30;0.65;;;;;;;;;;5013708;28;20499;-58
2022/11/14 14:51:06;;;;;;;4.85;0.63;;;;;;;;;;5014709;28;20045;-60
2022/11/14 14:53:34;;;;;;;2.53;0.70;;;;;;;;;;5016539;28;20077;-59
2022/11/14 14:56:03;;;;;;;13.05;0.70;;;;;;;;;;5025382;28;20380;-59
2022/11/14 14:58:31;;;;;;;9.93;0.73;;;;;;;;;;5028623;28;20025;-60
2022/11/14 15:00:58;;;;;;;5.13;0.80;;;;;;;;;;5034973;28;20167;-60
2022/11/14 15:03:27;;;;;;;10.52;1.02;;;;;;;;;;5035163;28;20037;-59
2022/11/14 15:06:01;;;;;;;11.27;1.38;;;;;;;;;;5034948;28;20060;-60
2022/11/14 15:08:29;;;;;;;18.73;1.77;;;;;;;;;;5018602;28;20042;-59
2022/11/14 15:10:58;;;;;;;13.30;1.10;;;;;;;;;;5014218;28;20084;-58